Time;durP1;ratioP1;P1;durP2;ratioP2;P2;SDS_P1;SDS_P2;PMS_P1;PMS_P2;Temp;Humidity;BMP_temperature;BMP_pressure;BME280_temperature;BME280_humidity;BME280_pressure;Samples;Min_cycle;Max_cycle;Signal;HPM_P1;HPM_P2
2022/06/12 00:02:07;;;;;;;7.00;3.10;;;;;;;17.07;78.15;99953.09;5069264;28;20066;-54
2022/06/12 00:04:33;;;;;;;7.43;2.78;;;;;;;17.12;77.57;99953.91;5071169;28;20040;-57
2022/06/12 00:06:58;;;;;;;7.03;2.95;;;;;;;17.12;78.26;99956.63;5071734;28;20024;-56
2022/06/12 00:09:23;;;;;;;8.95;2.80;;;;;;;17.13;77.90;99954.75;5070090;28;20395;-56
2022/06/12 00:11:49;;;;;;;6.28;2.92;;;;;;;16.94;79.00;99962.53;5070804;28;20074;-56
2022/06/12 00:14:17;;;;;;;6.20;2.70;;;;;;;16.85;79.19;99964.97;5070475;28;20459;-57
2022/06/12 00:16:43;;;;;;;8.82;2.70;;;;;;;16.86;79.23;99960.34;5071086;28;20043;-56
2022/06/12 00:19:09;;;;;;;10.82;2.83;;;;;;;16.85;78.59;99959.56;5070094;28;20020;-56
2022/06/12 00:21:34;;;;;;;8.63;2.70;;;;;;;16.27;82.43;99958.72;5070521;28;20029;-57
2022/06/12 00:24:05;;;;;;;9.25;2.88;;;;;;;15.96;84.96;99962.03;5070649;28;20025;-56
2022/06/12 00:26:34;;;;;;;8.85;3.17;;;;;;;15.91;85.98;99966.59;5071788;28;20060;-56
2022/06/12 00:29:07;;;;;;;6.05;2.92;;;;;;;15.83;85.52;99959.00;5070299;28;20036;-55
2022/06/12 00:31:33;;;;;;;8.10;3.00;;;;;;;15.77;87.01;99960.00;5070262;28;20082;-56
2022/06/12 00:33:59;;;;;;;5.75;2.67;;;;;;;15.74;86.29;99959.44;5069602;28;20039;-57
2022/06/12 00:36:24;;;;;;;8.00;3.00;;;;;;;15.74;86.32;99966.75;5070944;28;20024;-56
2022/06/12 00:38:50;;;;;;;9.82;3.15;;;;;;;15.61;86.96;99957.16;5069298;28;20486;-57
2022/06/12 00:41:37;;;;;;;7.53;3.22;;;;;;;15.58;88.13;99979.28;5069909;28;20025;-56
2022/06/12 00:44:02;;;;;;;6.25;3.20;;;;;;;15.60;87.54;99971.75;5049476;28;20044;-54
2022/06/12 00:46:39;;;;;;;6.00;2.70;;;;;;;15.58;86.26;99973.09;5070201;28;20032;-55
2022/06/12 00:49:13;;;;;;;10.90;3.30;;;;;;;15.63;85.87;99975.81;5069101;28;20493;-55
2022/06/12 00:51:39;;;;;;;8.10;3.28;;;;;;;15.57;85.59;99969.53;5047005;28;20032;-55
2022/06/12 00:54:06;;;;;;;8.40;3.20;;;;;;;15.39;86.72;99969.94;5053226;28;20508;-55
2022/06/12 00:56:34;;;;;;;5.45;2.90;;;;;;;15.47;86.58;99974.84;5060846;28;20021;-55
2022/06/12 00:59:03;;;;;;;6.40;2.90;;;;;;;15.35;87.40;99971.50;5024740;28;20475;-54
2022/06/12 01:01:34;;;;;;;4.95;3.00;;;;;;;15.43;87.05;99971.06;5048535;28;20631;-55
2022/06/12 01:06:45;;;;;;;8.63;2.88;;;;;;;15.28;87.64;99969.84;5065856;28;20046;-55
2022/06/12 01:09:22;;;;;;;10.68;3.13;;;;;;;15.09;88.68;99976.66;5045294;28;20041;-56
2022/06/12 01:11:47;;;;;;;9.20;3.30;;;;;;;15.04;90.84;99966.59;5044165;28;20336;-55
2022/06/12 01:14:14;;;;;;;7.30;3.00;;;;;;;15.05;89.56;99967.41;5045410;28;20393;-55
2022/06/12 01:16:45;;;;;;;10.57;3.30;;;;;;;15.18;89.47;99967.03;5045631;28;20107;-55
2022/06/12 01:19:14;;;;;;;7.93;3.15;;;;;;;15.35;87.28;99963.41;5069485;28;20089;-55
2022/06/12 01:21:57;;;;;;;7.22;3.10;;;;;;;15.54;86.26;99968.16;5029378;28;20035;-57
2022/06/12 01:24:41;;;;;;;10.20;2.80;;;;;;;15.72;84.55;99964.31;5047317;28;20100;-54
2022/06/12 01:27:13;;;;;;;10.25;3.20;;;;;;;15.79;84.29;99968.69;5068827;28;20028;-55
2022/06/12 01:29:59;;;;;;;9.05;3.17;;;;;;;16.01;82.69;99969.38;5069251;28;20132;-54
2022/06/12 01:32:53;;;;;;;5.65;2.95;;;;;;;16.10;81.98;99977.81;5051916;28;20033;-55
2022/06/12 01:35:34;;;;;;;8.48;3.53;;;;;;;15.98;81.98;99978.00;5026644;28;20179;-55
2022/06/12 01:38:28;;;;;;;9.90;3.00;;;;;;;15.99;82.29;99979.63;5065544;28;20024;-55
2022/06/12 01:41:22;;;;;;;8.20;3.40;;;;;;;15.60;84.00;99981.72;5067340;28;20025;-54
2022/06/12 01:44:11;;;;;;;8.65;2.72;;;;;;;15.43;84.52;99976.47;5029625;28;20068;-55
2022/06/12 01:47:10;;;;;;;6.65;3.00;;;;;;;15.26;86.40;99980.06;5057405;28;20504;-55
2022/06/12 01:49:53;;;;;;;8.77;3.03;;;;;;;14.52;90.09;99971.63;5037508;28;20086;-55
2022/06/12 01:52:22;;;;;;;9.43;2.85;;;;;;;14.51;90.18;99968.13;5043756;28;20051;-55
2022/06/12 01:55:03;;;;;;;9.85;3.05;;;;;;;14.93;88.80;99977.56;5047762;28;20048;-54
2022/06/12 01:57:32;;;;;;;10.18;3.30;;;;;;;15.20;86.01;99974.88;5069416;28;20064;-55
2022/06/12 01:59:59;;;;;;;11.68;3.30;;;;;;;15.38;85.04;99979.13;5067976;28;20037;-56
2022/06/12 02:02:55;;;;;;;9.45;3.05;;;;;;;15.52;83.56;99974.91;5051721;28;20032;-56
2022/06/12 02:05:32;;;;;;;9.13;3.08;;;;;;;15.48;83.17;99977.31;4993900;28;20472;-56
2022/06/12 02:08:09;;;;;;;14.38;3.75;;;;;;;15.45;83.13;99972.44;5041742;28;20047;-55
2022/06/12 02:10:39;;;;;;;12.20;3.03;;;;;;;15.17;84.57;99978.88;5022251;28;20033;-55
2022/06/12 02:13:12;;;;;;;8.88;3.20;;;;;;;15.13;84.80;99975.09;5004978;28;20024;-56
2022/06/12 02:15:59;;;;;;;10.38;3.05;;;;;;;14.94;86.20;99976.50;5025585;28;20033;-56
2022/06/12 02:18:41;;;;;;;6.75;3.03;;;;;;;14.87;87.85;99974.78;5030522;28;20061;-55
2022/06/12 02:21:26;;;;;;;9.07;2.90;;;;;;;14.97;85.60;99975.97;5033794;28;20032;-55
2022/06/12 02:24:02;;;;;;;12.52;3.35;;;;;;;15.12;84.87;99973.44;5029710;28;20155;-55
2022/06/12 02:26:37;;;;;;;9.45;3.08;;;;;;;15.19;83.81;99975.94;5026692;28;20724;-54
2022/06/12 02:29:06;;;;;;;8.13;3.00;;;;;;;15.16;83.84;99976.47;5033478;28;20451;-55
2022/06/12 02:31:35;;;;;;;10.30;3.20;;;;;;;15.12;83.54;99981.53;5048139;28;20117;-55
2022/06/12 02:34:04;;;;;;;10.20;3.15;;;;;;;14.93;84.52;99986.47;5013777;28;20033;-55
2022/06/12 02:36:33;;;;;;;10.27;3.05;;;;;;;14.75;85.57;99974.13;5024704;28;20037;-56
2022/06/12 02:39:11;;;;;;;11.00;3.20;;;;;;;14.85;85.40;99982.34;5045589;28;20056;-55
2022/06/12 02:41:44;;;;;;;6.88;3.08;;;;;;;14.63;87.04;99979.66;5030435;28;20045;-55
2022/06/12 02:44:21;;;;;;;10.23;3.13;;;;;;;14.55;86.58;99979.25;5015056;28;20024;-55
2022/06/12 02:47:08;;;;;;;11.68;3.90;;;;;;;14.35;86.56;99983.31;5028893;28;20032;-55
2022/06/12 02:49:34;;;;;;;7.80;3.42;;;;;;;14.14;88.78;99986.75;5028450;28;20379;-55
2022/06/12 02:52:15;;;;;;;9.70;3.38;;;;;;;13.89;89.77;99979.91;5029538;28;20024;-55
2022/06/12 02:55:03;;;;;;;9.90;3.80;;;;;;;13.84;90.68;99971.75;5042243;28;20060;-54
2022/06/12 02:57:43;;;;;;;9.02;3.33;;;;;;;13.79;91.27;99982.44;5025717;28;20041;-55
2022/06/12 03:00:19;;;;;;;10.05;3.80;;;;;;;13.52;93.16;99972.31;5029399;28;20117;-54
2022/06/12 03:02:57;;;;;;;8.63;3.05;;;;;;;13.70;91.88;99981.22;5026612;28;20491;-55
2022/06/12 03:05:31;;;;;;;10.02;3.35;;;;;;;13.77;90.96;99981.88;5013825;28;20025;-54
2022/06/12 03:08:01;;;;;;;15.23;3.35;;;;;;;13.79;91.71;99974.38;5033752;28;20049;-55
2022/06/12 03:10:31;;;;;;;14.55;3.80;;;;;;;13.76;90.86;99969.47;5051541;28;20081;-56
2022/06/12 03:12:56;;;;;;;14.15;3.30;;;;;;;13.79;90.29;99969.78;5043802;28;20028;-55
2022/06/12 03:15:44;;;;;;;12.10;3.20;;;;;;;13.82;89.01;99973.88;5067606;28;20032;-56
2022/06/12 03:18:13;;;;;;;10.20;3.38;;;;;;;13.92;88.92;99982.13;5064562;28;20032;-55
2022/06/12 03:21:02;;;;;;;9.90;3.80;;;;;;;13.70;91.14;99983.91;5066696;28;20028;-54
2022/06/12 03:23:52;;;;;;;8.75;3.17;;;;;;;13.93;89.36;99989.16;5057307;28;20036;-55
2022/06/12 03:26:23;;;;;;;10.95;3.03;;;;;;;13.94;88.93;99987.28;5045502;28;20033;-56
2022/06/12 03:28:48;;;;;;;;;;;;;;;13.96;88.94;99987.84;5034279;28;20024;-56
2022/06/12 03:31:25;;;;;;;8.77;3.35;;;;;;;13.80;89.45;99987.59;5067953;28;19949;-54
2022/06/12 03:33:50;;;;;;;9.05;3.35;;;;;;;13.93;89.60;99988.34;5060870;28;20036;-55
2022/06/12 03:36:42;;;;;;;10.13;3.50;;;;;;;14.05;87.73;99988.22;5067041;28;20040;-55
2022/06/12 03:39:39;;;;;;;12.80;4.05;;;;;;;14.10;87.83;99996.38;5053748;28;20033;-54
2022/06/12 03:42:28;;;;;;;12.95;3.55;;;;;;;14.78;85.08;99997.91;5046509;28;20035;-57
2022/06/12 03:45:24;;;;;;;12.45;4.32;;;;;;;15.21;81.29;99995.41;5042878;28;20376;-53
2022/06/12 03:48:06;;;;;;;9.70;3.55;;;;;;;14.68;83.76;100003.19;5066126;28;20040;-55
2022/06/12 03:50:53;;;;;;;8.00;3.08;;;;;;;14.82;83.45;99999.00;5023534;28;20064;-54
2022/06/12 03:53:34;;;;;;;10.60;3.42;;;;;;;14.76;84.32;100002.72;5047885;28;20033;-56
2022/06/12 03:59:43;;;;;;;13.07;3.33;;;;;;;15.05;85.57;99999.81;5066645;28;20052;-56
2022/06/12 04:02:11;;;;;;;14.68;3.42;;;;;;;16.18;77.49;100004.38;5043912;28;20060;-54
2022/06/12 04:04:37;;;;;;;9.85;2.90;;;;;;;16.73;75.55;99996.84;5035525;28;20339;-54
2022/06/12 04:07:04;;;;;;;11.40;3.20;;;;;;;17.19;73.04;99997.00;5044819;28;20426;-54
2022/06/12 04:09:31;;;;;;;9.43;2.50;;;;;;;18.55;67.64;100007.28;5066853;28;20052;-55
2022/06/12 04:12:03;;;;;;;19.60;3.15;;;;;;;19.26;64.60;100000.75;5024342;28;20029;-54
2022/06/12 04:14:37;;;;;;;12.13;2.90;;;;;;;19.45;63.20;99998.19;5036018;28;20434;-55
2022/06/12 04:17:04;;;;;;;12.32;2.80;;;;;;;20.09;61.24;100000.94;5017610;28;20020;-55
2022/06/12 04:19:29;;;;;;;14.57;2.85;;;;;;;20.00;61.11;99998.84;5067818;28;20028;-54
2022/06/12 04:21:55;;;;;;;8.52;2.53;;;;;;;19.18;63.56;99994.00;5065474;28;20356;-54
2022/06/12 04:24:42;;;;;;;8.98;2.40;;;;;;;20.92;58.94;99997.06;5065023;28;20036;-55
2022/06/12 04:27:25;;;;;;;9.85;2.65;;;;;;;21.25;57.55;99995.25;5050254;28;20482;-54
2022/06/12 04:29:52;;;;;;;10.63;2.63;;;;;;;21.38;57.88;99998.34;5032981;28;20043;-55
2022/06/12 04:32:17;;;;;;;10.40;2.45;;;;;;;21.15;57.99;100000.03;5049851;28;20028;-55
2022/06/12 04:34:43;;;;;;;10.95;2.65;;;;;;;22.48;54.44;100004.13;5066817;28;20417;-55
2022/06/12 04:37:19;;;;;;;8.27;2.88;;;;;;;22.49;54.06;100010.41;5066872;28;20028;-54
2022/06/12 04:39:45;;;;;;;8.85;2.63;;;;;;;21.89;55.64;100003.00;5064192;28;20073;-56
2022/06/12 04:42:12;;;;;;;13.88;2.55;;;;;;;22.98;53.15;100006.97;5071150;28;20016;-55
2022/06/12 04:44:38;;;;;;;12.00;2.72;;;;;;;22.20;54.40;100003.31;5070636;28;20070;-55
2022/06/12 04:47:04;;;;;;;11.60;2.90;;;;;;;21.01;58.08;100008.09;5070278;28;20020;-55
2022/06/12 04:49:30;;;;;;;12.40;2.95;;;;;;;21.73;56.91;100010.63;5051047;28;20032;-55
2022/06/12 04:51:57;;;;;;;10.80;2.75;;;;;;;22.64;54.53;100012.03;5071748;28;20040;-55
2022/06/12 04:54:22;;;;;;;10.40;2.88;;;;;;;22.23;54.87;100016.34;5068572;28;20062;-55
2022/06/12 04:56:48;;;;;;;11.23;3.03;;;;;;;22.35;53.97;100022.13;5069487;28;20123;-55
2022/06/12 04:59:14;;;;;;;10.20;2.67;;;;;;;21.00;57.34;100022.84;5069529;28;20032;-55
2022/06/12 05:01:39;;;;;;;8.90;3.10;;;;;;;20.87;59.35;100017.00;5068642;28;20051;-54
2022/06/12 05:04:05;;;;;;;13.02;2.63;;;;;;;22.37;55.40;100019.13;5070719;28;20414;-55
2022/06/12 05:06:31;;;;;;;10.10;2.95;;;;;;;23.72;51.04;100014.06;5069556;28;20082;-55
2022/06/12 05:08:56;;;;;;;9.27;2.45;;;;;;;23.93;51.29;100024.53;5070064;28;20119;-56
2022/06/12 05:11:23;;;;;;;10.95;3.03;;;;;;;24.69;49.20;100022.50;5069273;28;20052;-54
2022/06/12 05:13:49;;;;;;;14.38;2.83;;;;;;;25.27;47.42;100026.06;5069592;28;20442;-55
2022/06/12 05:16:34;;;;;;;11.88;2.65;;;;;;;25.48;46.18;100014.44;5070504;28;20028;-55
2022/06/12 05:19:00;;;;;;;6.22;2.53;;;;;;;25.84;46.57;100005.84;5047638;28;20040;-55
2022/06/12 05:21:26;;;;;;;7.90;2.72;;;;;;;25.64;46.58;100012.03;5070011;28;20143;-55
2022/06/12 05:23:52;;;;;;;8.23;2.75;;;;;;;26.18;45.15;100013.22;5068743;28;20509;-55
2022/06/12 05:26:17;;;;;;;7.53;2.60;;;;;;;26.35;45.62;100015.09;5069818;28;20082;-56
2022/06/12 05:28:43;;;;;;;9.02;2.78;;;;;;;25.86;46.86;100022.00;5044742;28;20028;-55
2022/06/12 05:31:08;;;;;;;9.52;2.50;;;;;;;25.48;47.98;100017.97;5073055;28;20490;-56
2022/06/12 05:33:34;;;;;;;6.88;2.33;;;;;;;26.58;46.95;100020.38;5068547;28;20032;-55
2022/06/12 05:35:59;;;;;;;10.20;3.10;;;;;;;25.50;48.77;100018.47;5069388;28;20028;-55
2022/06/12 05:38:25;;;;;;;10.77;2.80;;;;;;;26.04;48.07;100012.63;5053556;28;20016;-55
2022/06/12 05:40:50;;;;;;;7.63;2.88;;;;;;;25.26;49.97;100018.97;5069796;28;20040;-55
2022/06/12 05:43:16;;;;;;;7.25;2.70;;;;;;;24.62;50.44;100018.63;5052169;28;20024;-55
2022/06/12 05:45:41;;;;;;;8.48;2.80;;;;;;;27.73;44.49;100014.56;5069603;28;20035;-56
2022/06/12 05:48:10;;;;;;;7.20;2.90;;;;;;;26.97;44.67;100012.88;5070017;28;20029;-56
2022/06/12 05:50:36;;;;;;;7.93;2.75;;;;;;;26.01;47.13;100003.09;5067919;28;20144;-56
2022/06/12 05:53:02;;;;;;;13.45;3.17;;;;;;;26.34;46.48;100008.00;5069374;28;20444;-56
2022/06/12 05:55:27;;;;;;;9.60;3.10;;;;;;;26.97;44.33;100004.63;5070538;28;20510;-56
2022/06/12 05:57:53;;;;;;;11.30;2.80;;;;;;;26.93;43.33;100004.50;5051096;28;20078;-56
2022/06/12 06:00:23;;;;;;;10.27;3.30;;;;;;;27.86;42.98;100013.53;5069393;28;20029;-56
2022/06/12 06:02:48;;;;;;;11.50;3.40;;;;;;;28.55;40.79;100011.94;5068826;28;20585;-56
2022/06/12 06:05:14;;;;;;;11.35;3.10;;;;;;;28.47;40.47;100004.56;5068127;28;20029;-55
2022/06/12 06:07:39;;;;;;;11.43;3.10;;;;;;;28.58;40.35;100010.44;5068079;28;20035;-56
2022/06/12 06:10:07;;;;;;;10.52;3.15;;;;;;;27.94;41.15;100014.56;5068445;28;20032;-55
2022/06/12 06:12:33;;;;;;;11.00;3.03;;;;;;;28.74;39.93;100013.31;5067906;28;20041;-56
2022/06/12 06:14:58;;;;;;;9.98;3.13;;;;;;;29.18;38.42;100016.25;5067984;28;20470;-56
2022/06/12 06:17:24;;;;;;;9.95;3.47;;;;;;;28.59;39.13;100010.09;5069233;28;20036;-56
2022/06/12 06:19:49;;;;;;;9.75;3.50;;;;;;;26.32;43.87;100010.28;5066918;28;20029;-56
2022/06/12 06:22:18;;;;;;;13.57;3.78;;;;;;;28.21;40.79;100017.84;5034015;28;20020;-56
2022/06/12 06:24:44;;;;;;;13.23;3.80;;;;;;;26.55;43.14;100010.03;5066027;28;20032;-55
2022/06/12 06:27:10;;;;;;;13.45;3.30;;;;;;;27.78;41.50;100010.81;5068421;28;20036;-56
2022/06/12 06:29:36;;;;;;;10.85;3.00;;;;;;;29.14;39.40;100004.34;5047083;28;20033;-56
2022/06/12 06:32:02;;;;;;;9.40;3.03;;;;;;;29.75;38.64;99995.84;5068699;28;20459;-56
2022/06/12 06:34:27;;;;;;;9.30;3.33;;;;;;;28.74;40.64;99997.56;5073797;28;20360;-56
2022/06/12 06:36:53;;;;;;;9.13;3.50;;;;;;;27.74;42.45;100008.75;5068784;28;20063;-56
2022/06/12 06:39:18;;;;;;;11.10;3.20;;;;;;;23.72;50.14;99999.56;5066688;28;20021;-56
2022/06/12 06:41:44;;;;;;;16.10;3.35;;;;;;;25.90;46.53;99998.28;5067439;28;20025;-56
2022/06/12 06:46:53;;;;;;;13.65;3.50;;;;;;;27.78;41.86;99999.78;5067653;28;20063;-56
2022/06/12 06:49:19;;;;;;;20.20;3.67;;;;;;;27.97;42.27;100008.38;5048119;28;20474;-56
2022/06/12 06:51:45;;;;;;;12.38;3.20;;;;;;;25.21;47.35;99997.19;5067184;28;20371;-56
2022/06/12 06:54:10;;;;;;;13.98;3.95;;;;;;;27.73;42.41;100009.06;5067731;28;20020;-55
2022/06/12 06:56:36;;;;;;;11.77;3.90;;;;;;;28.11;41.41;100014.38;5070657;28;20032;-55
2022/06/12 06:59:04;;;;;;;11.48;3.53;;;;;;;28.85;39.55;100008.13;5068308;28;20410;-55
2022/06/12 07:01:30;;;;;;;11.85;3.38;;;;;;;29.19;39.92;100012.38;5064629;28;20065;-55
2022/06/12 07:03:55;;;;;;;14.63;3.70;;;;;;;29.78;38.07;100008.97;5065420;28;20048;-55
2022/06/12 07:06:21;;;;;;;15.13;3.97;;;;;;;30.22;37.32;100008.91;5067750;28;20383;-55
2022/06/12 07:08:46;;;;;;;14.40;3.50;;;;;;;31.47;35.81;100008.31;5066025;28;20121;-55
2022/06/12 07:11:12;;;;;;;9.02;3.55;;;;;;;31.92;35.04;100009.56;5067694;28;20124;-55
2022/06/12 07:13:37;;;;;;;19.40;3.92;;;;;;;31.82;34.67;100010.16;5068026;28;20040;-55
2022/06/12 07:16:04;;;;;;;14.95;3.53;;;;;;;30.61;36.58;100002.81;5062670;28;20024;-55
2022/06/12 07:18:29;;;;;;;14.30;3.70;;;;;;;30.69;35.67;100018.41;5067152;28;20042;-56
2022/06/12 07:20:55;;;;;;;11.93;3.65;;;;;;;30.34;37.08;100010.84;5067510;28;20020;-55
2022/06/12 07:23:22;;;;;;;11.98;3.85;;;;;;;31.45;36.12;100018.97;5066224;28;20029;-56
2022/06/12 07:25:50;;;;;;;12.07;3.38;;;;;;;31.69;34.64;100012.31;5067570;28;20390;-55
2022/06/12 07:28:16;;;;;;;12.98;3.90;;;;;;;31.20;34.11;100001.78;5052408;28;20031;-56
2022/06/12 07:30:42;;;;;;;11.38;3.75;;;;;;;31.90;32.74;100002.78;5066328;28;20032;-57
2022/06/12 07:33:07;;;;;;;13.77;3.47;;;;;;;31.62;34.75;100000.28;5065695;28;20531;-56
2022/06/12 07:35:34;;;;;;;11.93;3.70;;;;;;;31.19;35.53;99991.06;5050134;28;20036;-55
2022/06/12 07:38:00;;;;;;;14.23;3.53;;;;;;;32.04;33.68;100002.28;5032635;28;20120;-55
2022/06/12 07:40:29;;;;;;;12.48;3.80;;;;;;;32.65;32.88;100001.34;5035804;28;20154;-55
2022/06/12 07:42:54;;;;;;;13.38;3.65;;;;;;;31.11;33.68;99999.22;5045888;28;20029;-55
2022/06/12 07:45:20;;;;;;;15.30;3.88;;;;;;;30.93;33.55;99998.03;5067345;28;20032;-55
2022/06/12 07:47:46;;;;;;;11.20;3.22;;;;;;;30.45;33.91;100000.03;5069211;28;20020;-56
2022/06/12 07:50:11;;;;;;;12.27;3.53;;;;;;;31.23;33.58;99994.72;5068294;28;20036;-56
2022/06/12 07:52:38;;;;;;;10.75;3.35;;;;;;;32.07;31.98;99998.78;5068206;28;20068;-57
2022/06/12 07:55:04;;;;;;;11.25;3.40;;;;;;;31.44;33.05;100000.72;5040407;28;20044;-56
2022/06/12 07:57:30;;;;;;;10.70;3.53;;;;;;;30.57;33.48;99999.94;5068252;28;20487;-55
2022/06/12 07:59:55;;;;;;;11.20;3.33;;;;;;;32.21;32.07;99996.25;5053559;28;20074;-55
2022/06/12 08:02:21;;;;;;;12.45;3.33;;;;;;;31.37;33.04;99995.00;5037795;28;20490;-55
2022/06/12 08:04:46;;;;;;;10.18;3.53;;;;;;;31.96;32.82;99993.84;5067874;28;20486;-54
2022/06/12 08:07:11;;;;;;;10.82;3.42;;;;;;;32.73;31.35;99997.50;5051000;28;20028;-54
2022/06/12 08:09:37;;;;;;;11.55;3.30;;;;;;;32.33;32.15;99996.06;5026129;28;20142;-55
2022/06/12 08:12:03;;;;;;;9.27;3.10;;;;;;;32.08;33.16;99995.66;5045204;28;20025;-54
2022/06/12 08:14:28;;;;;;;11.05;3.50;;;;;;;30.25;34.45;99999.97;5050467;28;20506;-54
2022/06/12 08:16:54;;;;;;;8.93;3.08;;;;;;;26.55;40.33;99993.56;5050077;28;20021;-57
2022/06/12 08:22:05;;;;;;;11.88;3.33;;;;;;;30.53;35.29;99990.75;5051854;28;20041;-54
2022/06/12 08:24:30;;;;;;;12.52;3.45;;;;;;;31.43;33.58;99981.69;5033001;28;20033;-56
2022/06/12 08:26:56;;;;;;;10.85;3.33;;;;;;;29.78;36.02;99988.81;5050342;28;20033;-53
2022/06/12 08:29:21;;;;;;;11.75;3.30;;;;;;;30.38;35.40;99994.31;5050755;28;20152;-54
2022/06/12 08:31:49;;;;;;;14.40;3.60;;;;;;;31.01;33.90;99985.16;5047379;28;20025;-56
2022/06/12 08:34:22;;;;;;;12.52;3.67;;;;;;;31.74;32.60;99986.28;5032268;28;20061;-56
2022/06/12 08:36:49;;;;;;;16.05;3.70;;;;;;;29.75;35.91;99989.50;5037439;28;20037;-57
2022/06/12 08:39:14;;;;;;;10.98;3.50;;;;;;;31.46;33.13;99990.09;5050630;28;20044;-56
2022/06/12 08:41:47;;;;;;;13.20;4.07;;;;;;;30.71;34.94;99988.41;5030207;28;20033;-57
2022/06/12 08:44:16;;;;;;;12.68;3.60;;;;;;;31.17;34.56;99980.34;5049500;28;20028;-57
2022/06/12 08:47:06;;;;;;;9.82;2.85;;;;;;;30.96;34.54;99975.16;5048848;28;20055;-57
2022/06/12 08:49:41;;;;;;;12.63;3.60;;;;;;;30.34;34.33;99971.34;5022129;28;20036;-57
2022/06/12 08:52:21;;;;;;;10.00;2.90;;;;;;;31.24;33.92;99963.09;5045756;28;20486;-57
2022/06/12 08:54:49;;;;;;;12.45;3.75;;;;;;;31.41;33.27;99973.78;5048077;28;20032;-57
2022/06/12 08:57:16;;;;;;;10.50;3.38;;;;;;;32.07;32.79;99962.72;5045889;28;20060;-57
2022/06/12 08:59:49;;;;;;;7.93;3.17;;;;;;;30.89;33.58;99963.94;4999448;28;20732;-56
2022/06/12 09:02:26;;;;;;;12.05;3.05;;;;;;;30.87;33.48;99963.50;5047065;28;20040;-57
2022/06/12 09:04:52;;;;;;;12.45;3.20;;;;;;;30.53;33.86;99961.13;5045655;28;20459;-57
2022/06/12 09:07:24;;;;;;;11.43;3.50;;;;;;;29.80;34.86;99950.59;5028292;28;20268;-57
2022/06/12 09:09:56;;;;;;;13.50;3.40;;;;;;;30.76;33.41;99954.94;5042762;28;20151;-56
2022/06/12 09:12:32;;;;;;;24.63;11.57;;;;;;;29.63;35.98;99944.22;5017094;28;20072;-57
2022/06/12 09:15:39;;;;;;;14.25;3.80;;;;;;;29.88;34.85;99942.13;5065192;28;20033;-56
2022/06/12 09:18:12;;;;;;;10.15;3.13;;;;;;;29.24;35.44;99948.63;5065183;28;20041;-56
2022/06/12 09:20:42;;;;;;;10.10;3.30;;;;;;;29.44;35.45;99933.81;5052359;28;20033;-56
2022/06/12 09:23:13;;;;;;;11.15;2.90;;;;;;;29.57;35.11;99933.75;5032519;28;20029;-56
2022/06/12 09:26:01;;;;;;;11.60;3.03;;;;;;;29.14;35.03;99933.38;5050236;28;20193;-56
2022/06/12 09:28:29;;;;;;;10.55;3.08;;;;;;;27.96;36.37;99930.44;5034393;28;20527;-56
2022/06/12 09:31:33;;;;;;;8.52;2.90;;;;;;;29.28;35.05;99927.47;5065294;28;20106;-56
2022/06/12 09:34:04;;;;;;;9.48;3.30;;;;;;;26.71;38.68;99925.88;5067446;28;20071;-56
2022/06/12 09:36:48;;;;;;;10.57;2.80;;;;;;;27.74;37.77;99925.31;5047535;28;20085;-56
2022/06/12 09:39:20;;;;;;;8.93;2.70;;;;;;;27.98;36.75;99916.31;5045673;28;20021;-57
2022/06/12 09:42:00;;;;;;;10.68;3.05;;;;;;;28.08;36.96;99921.41;5044220;28;20106;-56
2022/06/12 09:44:38;;;;;;;11.00;2.58;;;;;;;27.90;36.65;99914.47;5041570;28;20029;-56
2022/06/12 09:47:07;;;;;;;7.90;2.22;;;;;;;27.15;37.70;99915.31;5069166;28;21207;-56
2022/06/12 09:49:36;;;;;;;9.02;2.45;;;;;;;28.09;36.83;99914.72;5037399;28;20475;-56
2022/06/12 09:52:24;;;;;;;7.68;2.72;;;;;;;29.18;36.05;99906.69;5048545;28;20107;-57
2022/06/12 09:54:52;;;;;;;8.48;2.90;;;;;;;29.82;34.96;99909.59;5041423;28;20035;-57
2022/06/12 09:57:27;;;;;;;7.70;2.57;;;;;;;29.83;34.92;99909.25;5069063;28;20122;-57
2022/06/12 10:00:05;;;;;;;7.82;2.60;;;;;;;30.39;34.06;99905.50;5067193;28;20411;-55
2022/06/12 10:02:52;;;;;;;7.63;2.87;;;;;;;29.95;33.32;99904.78;5045198;28;20029;-57
2022/06/12 10:05:29;;;;;;;10.98;2.80;;;;;;;30.40;33.21;99903.53;5062211;28;20036;-56
2022/06/12 10:07:58;;;;;;;9.30;2.85;;;;;;;29.89;33.40;99898.72;5041560;28;20032;-56
2022/06/12 10:10:28;;;;;;;10.55;2.60;;;;;;;29.35;34.19;99889.00;5068583;28;20024;-55
2022/06/12 10:12:58;;;;;;;8.35;2.75;;;;;;;30.28;32.05;99896.97;5042098;28;20036;-57
2022/06/12 10:15:27;;;;;;;11.55;2.60;;;;;;;29.34;33.01;99898.44;5046012;28;20028;-56
2022/06/12 10:18:16;;;;;;;8.18;2.60;;;;;;;28.70;34.89;99888.28;5067222;28;20021;-55
2022/06/12 10:20:49;;;;;;;6.70;2.30;;;;;;;29.30;33.13;99888.44;5067111;28;20123;-55
2022/06/12 10:23:15;;;;;;;6.80;2.10;;;;;;;30.24;29.87;99890.53;5050125;28;20030;-56
2022/06/12 10:25:55;;;;;;;6.75;2.15;;;;;;;29.20;33.17;99892.53;5068274;28;20032;-56
2022/06/12 10:28:29;;;;;;;7.90;2.50;;;;;;;29.41;33.08;99893.13;5043358;28;20024;-54
2022/06/12 10:31:05;;;;;;;8.68;2.65;;;;;;;28.86;34.58;99888.38;5049747;28;20020;-55
2022/06/12 10:33:52;;;;;;;9.00;2.47;;;;;;;29.14;33.16;99880.13;5067652;28;20036;-56
2022/06/12 10:36:24;;;;;;;6.65;2.10;;;;;;;28.84;33.58;99885.16;5065064;28;20059;-55
2022/06/12 10:38:50;;;;;;;5.57;2.00;;;;;;;28.78;32.21;99884.59;5049528;28;20067;-54
2022/06/12 10:41:24;;;;;;;7.45;2.40;;;;;;;29.36;31.88;99881.53;5067636;28;20024;-56
2022/06/12 10:43:50;;;;;;;5.30;1.90;;;;;;;29.27;29.49;99870.63;5065095;28;20107;-56
2022/06/12 10:46:31;;;;;;;3.72;1.70;;;;;;;28.26;30.56;99871.56;5067487;28;20027;-55
2022/06/12 10:49:16;;;;;;;4.25;1.90;;;;;;;29.63;27.79;99872.41;5067565;28;20035;-55
2022/06/12 10:51:42;;;;;;;4.57;1.92;;;;;;;30.07;27.08;99874.28;5049832;28;20024;-56
2022/06/12 10:54:15;;;;;;;6.47;3.15;;;;;;;29.30;30.20;99867.16;5066631;28;20035;-55
2022/06/12 10:56:49;;;;;;;6.82;2.83;;;;;;;29.83;28.12;99859.53;5066664;28;20383;-55
2022/06/12 10:59:19;;;;;;;14.90;8.70;;;;;;;29.70;28.96;99860.75;5063007;28;20024;-55
2022/06/12 11:01:57;;;;;;;11.00;4.25;;;;;;;29.53;30.08;99855.53;5068046;28;20047;-56
2022/06/12 11:04:29;;;;;;;10.63;3.00;;;;;;;29.72;34.03;99855.66;5067336;28;20123;-55
2022/06/12 11:06:54;;;;;;;6.82;2.95;;;;;;;27.08;37.15;99846.28;5067044;28;20028;-56
2022/06/12 11:09:28;;;;;;;8.25;2.92;;;;;;;26.56;38.54;99852.22;5065696;28;20049;-55
2022/06/12 11:12:15;;;;;;;10.80;3.30;;;;;;;28.44;37.67;99850.88;5049219;28;20028;-55
2022/06/12 11:14:45;;;;;;;10.52;3.58;;;;;;;26.54;39.89;99849.03;5064821;28;20032;-56
2022/06/12 11:17:46;;;;;;;9.82;2.97;;;;;;;26.19;40.50;99844.50;5047830;28;20399;-55
2022/06/12 11:20:20;;;;;;;14.13;3.92;;;;;;;28.15;37.06;99849.97;5028610;28;20108;-55
2022/06/12 11:22:58;;;;;;;7.93;2.85;;;;;;;27.05;38.31;99842.28;5067031;28;20031;-56
2022/06/12 11:25:39;;;;;;;8.52;2.40;;;;;;;27.17;39.22;99847.03;5039782;28;20069;-55
2022/06/12 11:28:25;;;;;;;8.20;3.15;;;;;;;26.67;41.65;99864.44;5032297;28;20029;-55
2022/06/12 11:31:17;;;;;;;9.98;3.20;;;;;;;26.40;39.92;99839.03;5039592;28;20457;-55
2022/06/12 11:33:55;;;;;;;9.07;2.60;;;;;;;26.67;40.46;99839.69;5059781;28;20111;-55
2022/06/12 11:36:40;;;;;;;9.80;2.88;;;;;;;26.25;40.50;99842.38;5045815;28;20044;-54
2022/06/12 11:39:27;;;;;;;8.85;2.63;;;;;;;26.30;41.64;99839.44;5038055;28;20141;-55
2022/06/12 11:41:55;;;;;;;7.63;2.80;;;;;;;27.00;40.08;99836.19;5045476;28;20154;-54
2022/06/12 11:44:46;;;;;;;12.23;3.03;;;;;;;26.81;41.93;99840.25;5065903;28;20567;-55
2022/06/12 11:47:36;;;;;;;9.95;2.80;;;;;;;25.69;43.46;99836.16;5052424;28;20032;-54
2022/06/12 11:50:18;;;;;;;7.38;2.60;;;;;;;26.23;43.02;99833.66;5066263;28;20499;-54
2022/06/12 11:52:56;;;;;;;13.95;2.90;;;;;;;26.42;42.51;99831.28;5069528;28;20028;-55
2022/06/12 11:55:26;;;;;;;10.85;2.63;;;;;;;26.36;41.42;99826.28;5069359;28;20029;-56
2022/06/12 11:57:57;;;;;;;8.65;2.88;;;;;;;26.60;40.78;99833.94;5069638;28;20024;-54
2022/06/12 12:00:27;;;;;;;9.05;2.67;;;;;;;26.62;41.07;99810.47;5069346;28;20025;-53
2022/06/12 12:03:11;;;;;;;9.00;2.90;;;;;;;25.62;43.23;99814.72;5053413;28;20032;-54